createdAt,value
2023-01-30T00:00:35.503Z,9.18
2023-01-30T00:06:19.630Z,9.19
2023-01-30T00:12:03.746Z,9.19
2023-01-30T00:17:47.629Z,9.19
2023-01-30T00:23:32.063Z,9.21
2023-01-30T00:29:15.932Z,9.21
2023-01-30T00:35:01.150Z,9.23
2023-01-30T00:40:45.051Z,9.25
2023-01-30T00:46:30.652Z,9.22
2023-01-30T00:52:14.816Z,9.23
2023-01-30T00:57:58.954Z,9.24
2023-01-30T01:03:42.857Z,9.27
2023-01-30T01:09:26.519Z,9.28
2023-01-30T01:15:11.321Z,9.27
2023-01-30T01:20:56.148Z,9.28
2023-01-30T01:26:40.444Z,9.28
2023-01-30T01:32:24.783Z,9.31
2023-01-30T01:38:08.752Z,9.32
2023-01-30T01:44:06.562Z,9.32
2023-01-30T01:49:50.408Z,9.37
2023-01-30T01:55:36.322Z,9.37
2023-01-30T02:01:20.767Z,9.42
2023-01-30T02:07:05.162Z,9.44
2023-01-30T02:12:50.286Z,9.41
2023-01-30T02:18:35.811Z,9.4
2023-01-30T02:24:30.818Z,9.41
2023-01-30T02:30:26.150Z,9.47
2023-01-30T02:36:15.361Z,9.51
2023-01-30T02:42:04.702Z,9.49
2023-01-30T02:47:53.436Z,9.51
2023-01-30T02:53:37.736Z,9.54
2023-01-30T02:59:26.600Z,9.53
2023-01-30T03:05:29.396Z,9.55
2023-01-30T03:11:13.925Z,9.6
2023-01-30T03:16:58.906Z,9.59
2023-01-30T03:22:43.011Z,9.58
2023-01-30T03:28:28.037Z,9.58
2023-01-30T03:34:12.036Z,9.61
2023-01-30T03:39:56.868Z,9.6
2023-01-30T03:45:40.473Z,9.62
2023-01-30T03:51:24.273Z,9.64
2023-01-30T03:57:08.316Z,9.65
2023-01-30T04:02:52.256Z,9.67
2023-01-30T04:08:36.032Z,9.66
2023-01-30T04:14:19.822Z,9.68
2023-01-30T04:20:03.833Z,9.69
2023-01-30T04:25:49.742Z,9.68
2023-01-30T04:31:33.482Z,9.7
2023-01-30T04:37:17.508Z,9.72
2023-01-30T04:43:02.109Z,9.73
2023-01-30T04:48:46.110Z,9.72
2023-01-30T04:54:30.139Z,9.73
2023-01-30T05:00:14.700Z,9.74
2023-01-30T05:05:58.500Z,9.77
2023-01-30T05:11:42.330Z,9.77
2023-01-30T05:17:26.224Z,9.9
2023-01-30T05:23:10.208Z,9.88
2023-01-30T05:28:56.068Z,9.88
2023-01-30T05:34:39.745Z,9.9
2023-01-30T05:40:23.509Z,9.87
2023-01-30T05:46:09.529Z,10
2023-01-30T05:51:53.601Z,9.94
2023-01-30T05:57:37.391Z,9.92
2023-01-30T06:03:21.700Z,9.93
2023-01-30T06:09:05.461Z,9.93
2023-01-30T06:14:49.230Z,9.93
2023-01-30T06:20:32.969Z,9.93
2023-01-30T06:26:16.799Z,9.97
2023-01-30T06:32:00.696Z,9.99
2023-01-30T06:37:44.768Z,9.97
2023-01-30T06:43:29.393Z,9.98
2023-01-30T06:49:13.408Z,9.99
2023-01-30T06:54:57.226Z,10.02
2023-01-30T07:00:42.076Z,10.03
2023-01-30T07:06:26.127Z,10.04
2023-01-30T07:12:10.987Z,10.03
2023-01-30T07:17:55.036Z,10.01
2023-01-30T07:23:39.205Z,10.04
2023-01-30T07:29:23.088Z,10.03
2023-01-30T07:35:07.123Z,10.06
2023-01-30T07:40:51.042Z,10.12
2023-01-30T07:46:34.812Z,10.11
2023-01-30T07:52:18.828Z,10.12
2023-01-30T07:58:02.789Z,10.14
2023-01-30T08:03:48.089Z,10.21
2023-01-30T08:09:31.949Z,10.23
2023-01-30T08:15:15.587Z,10.3
2023-01-30T08:21:01.037Z,10.38
2023-01-30T08:26:44.877Z,10.42
2023-01-30T08:32:28.902Z,10.56
2023-01-30T08:38:13.010Z,10.69
2023-01-30T08:43:56.967Z,10.86
2023-01-30T08:49:40.896Z,10.87
2023-01-30T08:55:24.817Z,10.93
2023-01-30T09:01:09.382Z,11.1
2023-01-30T09:06:53.177Z,11.19
2023-01-30T09:12:36.707Z,11.27
2023-01-30T09:18:21.518Z,11.36
2023-01-30T09:24:05.698Z,11.5
2023-01-30T09:29:49.427Z,11.68
2023-01-30T09:35:33.401Z,11.64
2023-01-30T09:41:31.727Z,11.8
2023-01-30T09:47:20.385Z,11.82
2023-01-30T09:53:05.912Z,11.94
2023-01-30T09:58:51.630Z,11.95
2023-01-30T10:04:40.332Z,12
2023-01-30T10:10:45.648Z,12.02
2023-01-30T10:16:43.271Z,12.1
2023-01-30T10:22:35.074Z,12.14
2023-01-30T10:28:22.483Z,12.26
2023-01-30T10:34:09.777Z,12.33
2023-01-30T10:39:58.579Z,12.28
2023-01-30T10:45:45.857Z,12.26
2023-01-30T10:51:39.540Z,12.26
2023-01-30T10:57:26.135Z,12.26
2023-01-30T11:03:20.974Z,12.34
2023-01-30T11:09:04.793Z,12.37
2023-01-30T11:14:59.774Z,12.42
2023-01-30T11:20:47.239Z,12.65
2023-01-30T11:26:45.412Z,12.83
2023-01-30T11:32:30.599Z,12.77
2023-01-30T11:38:20.752Z,12.73
2023-01-30T11:44:05.116Z,12.85
2023-01-30T11:49:52.846Z,13.12
2023-01-30T11:56:03.260Z,13.23
2023-01-30T12:01:59.845Z,13.39
2023-01-30T12:07:44.605Z,13.42
2023-01-30T12:13:32.818Z,13.38
2023-01-30T12:19:20.274Z,13.41
2023-01-30T12:25:09.514Z,13.44
2023-01-30T12:30:55.840Z,13.44
2023-01-30T12:36:44.436Z,13.3
2023-01-30T12:42:40.153Z,13.26
2023-01-30T12:48:48.230Z,13.17
2023-01-30T12:54:54.259Z,13.25
2023-01-30T13:00:44.936Z,13.18
2023-01-30T13:06:36.823Z,13.21
2023-01-30T13:12:26.253Z,13.16
2023-01-30T13:18:14.068Z,13.13
2023-01-30T13:24:05.325Z,13.14
2023-01-30T13:29:49.559Z,13.23
2023-01-30T13:35:36.298Z,13.32
2023-01-30T13:41:20.761Z,13.37
2023-01-30T13:47:10.549Z,13.33
2023-01-30T13:52:59.542Z,13.36
2023-01-30T13:58:47.188Z,13.49
2023-01-30T14:04:41.907Z,13.54
2023-01-30T14:10:27.010Z,13.63
2023-01-30T14:16:12.127Z,13.7
2023-01-30T14:22:00.339Z,13.65
2023-01-30T14:27:44.214Z,13.54
2023-01-30T14:33:41.955Z,13.53
2023-01-30T14:39:47.098Z,13.41
2023-01-30T14:45:43.011Z,13.46
2023-01-30T14:51:33.744Z,13.36
2023-01-30T14:57:21.277Z,13.21
2023-01-30T15:03:08.257Z,13.15
2023-01-30T15:08:52.344Z,13.04
2023-01-30T15:14:40.563Z,12.97
2023-01-30T15:20:35.228Z,12.94
2023-01-30T15:26:28.263Z,12.94
2023-01-30T15:32:19.563Z,12.93
2023-01-30T15:38:03.449Z,12.85
2023-01-30T15:43:58.853Z,12.8
2023-01-30T15:49:54.447Z,12.71
2023-01-30T15:55:38.478Z,12.65
2023-01-30T16:01:23.188Z,12.61
2023-01-30T16:07:22.625Z,12.47
2023-01-30T16:13:08.643Z,12.42
2023-01-30T16:18:55.696Z,12.32
2023-01-30T16:24:43.419Z,12.23
2023-01-30T16:30:28.956Z,12.12
2023-01-30T16:36:24.245Z,12.06
2023-01-30T16:42:20.315Z,12.02
2023-01-30T16:48:10.137Z,11.99
2023-01-30T16:53:56.844Z,11.92
2023-01-30T16:59:40.515Z,11.81
2023-01-30T17:05:25.731Z,11.73
2023-01-30T17:11:10.951Z,11.66
2023-01-30T17:17:05.259Z,11.59
2023-01-30T17:22:50.393Z,11.53
2023-01-30T17:28:34.185Z,11.48
2023-01-30T17:34:17.939Z,11.47
2023-01-30T17:40:01.795Z,11.4
2023-01-30T17:45:46.627Z,11.37
2023-01-30T17:51:30.770Z,11.32
2023-01-30T17:57:14.846Z,11.31
2023-01-30T18:02:58.931Z,11.29
2023-01-30T18:08:43.868Z,11.26
2023-01-30T18:14:28.885Z,11.23
2023-01-30T18:20:14.823Z,11.21
2023-01-30T18:25:59.579Z,11.19
2023-01-30T18:31:43.564Z,11.16
2023-01-30T18:37:29.030Z,11.11
2023-01-30T18:43:13.969Z,11.07
2023-01-30T18:48:58.241Z,11.06
2023-01-30T18:54:42.397Z,11.01
2023-01-30T19:00:27.014Z,10.97
2023-01-30T19:06:12.279Z,10.95
2023-01-30T19:11:56.189Z,10.92
2023-01-30T19:17:40.097Z,10.91
2023-01-30T19:23:25.215Z,10.85
2023-01-30T19:29:09.394Z,10.83
2023-01-30T19:34:53.310Z,10.81
2023-01-30T19:40:39.460Z,10.8
2023-01-30T19:46:23.331Z,10.82
2023-01-30T19:52:07.709Z,11.09
2023-01-30T19:57:51.737Z,10.96
2023-01-30T20:03:35.951Z,10.88
2023-01-30T20:09:19.654Z,10.82
2023-01-30T20:15:03.694Z,10.76
2023-01-30T20:20:47.447Z,10.72
2023-01-30T20:26:32.166Z,10.74
2023-01-30T20:32:16.247Z,10.98
2023-01-30T20:38:00.597Z,11.11
2023-01-30T20:43:46.954Z,11.07
2023-01-30T20:49:30.927Z,10.86
2023-01-30T20:55:14.808Z,10.72
2023-01-30T21:01:05.024Z,10.64
2023-01-30T21:06:48.931Z,10.63
2023-01-30T21:12:33.104Z,10.71
2023-01-30T21:18:16.802Z,10.6
2023-01-30T21:24:01.755Z,10.52
2023-01-30T21:29:45.374Z,10.44
2023-01-30T21:35:29.344Z,10.4
2023-01-30T21:41:14.830Z,10.36
2023-01-30T21:46:58.642Z,10.35
2023-01-30T21:52:42.406Z,10.32
2023-01-30T21:58:30.266Z,10.26
2023-01-30T22:04:15.369Z,10.25
2023-01-30T22:09:59.322Z,10.2
2023-01-30T22:15:43.135Z,10.18
2023-01-30T22:21:28.070Z,10.16
2023-01-30T22:27:12.127Z,10.14
2023-01-30T22:32:56.803Z,10.1
2023-01-30T22:38:41.729Z,10.09
2023-01-30T22:44:25.784Z,10.06
2023-01-30T22:50:10.446Z,10.09
2023-01-30T22:55:54.361Z,10.22
2023-01-30T23:01:40.044Z,10.16
2023-01-30T23:07:23.577Z,10.48
2023-01-30T23:13:07.105Z,10.7
2023-01-30T23:18:51.293Z,10.76
2023-01-30T23:24:35.478Z,10.42
2023-01-30T23:30:22.389Z,10.21
2023-01-30T23:36:08.264Z,10.11
2023-01-30T23:41:52.170Z,10.03
2023-01-30T23:47:36.332Z,9.95
2023-01-30T23:53:21.121Z,9.92
2023-01-30T23:59:05.908Z,9.86
